sensor_id;sensor_type;location;lat;lon;timestamp;temperature;humidity
43225;DHT22;28834;48.720;9.208;2022-08-21T00:01:25;14.80;99.90
43225;DHT22;28834;48.720;9.208;2022-08-21T00:03:52;14.80;99.90
43225;DHT22;28834;48.720;9.208;2022-08-21T00:06:18;14.80;99.90
43225;DHT22;28834;48.720;9.208;2022-08-21T00:08:43;14.80;99.90
43225;DHT22;28834;48.720;9.208;2022-08-21T00:11:09;14.80;99.90
43225;DHT22;28834;48.720;9.208;2022-08-21T00:13:36;14.80;99.90
43225;DHT22;28834;48.720;9.208;2022-08-21T00:16:02;14.80;99.90
43225;DHT22;28834;48.720;9.208;2022-08-21T00:18:28;14.80;99.90
43225;DHT22;28834;48.720;9.208;2022-08-21T00:20:54;14.80;99.90
43225;DHT22;28834;48.720;9.208;2022-08-21T00:23:20;14.80;99.90
43225;DHT22;28834;48.720;9.208;2022-08-21T00:25:45;14.80;99.90
43225;DHT22;28834;48.720;9.208;2022-08-21T00:28:11;14.90;99.90
43225;DHT22;28834;48.720;9.208;2022-08-21T00:30:38;14.90;99.90
43225;DHT22;28834;48.720;9.208;2022-08-21T00:33:04;14.90;99.90
43225;DHT22;28834;48.720;9.208;2022-08-21T00:35:34;14.90;99.90
43225;DHT22;28834;48.720;9.208;2022-08-21T00:38:00;14.90;99.90
43225;DHT22;28834;48.720;9.208;2022-08-21T00:40:31;14.90;99.90
43225;DHT22;28834;48.720;9.208;2022-08-21T00:42:57;14.90;99.90
43225;DHT22;28834;48.720;9.208;2022-08-21T00:45:22;14.90;99.90
43225;DHT22;28834;48.720;9.208;2022-08-21T00:47:49;14.90;99.90
43225;DHT22;28834;48.720;9.208;2022-08-21T00:50:16;14.80;99.90
43225;DHT22;28834;48.720;9.208;2022-08-21T00:52:42;14.80;99.90
43225;DHT22;28834;48.720;9.208;2022-08-21T00:55:09;14.80;99.90
43225;DHT22;28834;48.720;9.208;2022-08-21T00:57:41;14.80;99.90
43225;DHT22;28834;48.720;9.208;2022-08-21T01:00:11;14.70;99.90
43225;DHT22;28834;48.720;9.208;2022-08-21T01:02:37;14.60;99.90
43225;DHT22;28834;48.720;9.208;2022-08-21T01:05:04;14.50;99.90
43225;DHT22;28834;48.720;9.208;2022-08-21T01:07:30;14.50;99.90
43225;DHT22;28834;48.720;9.208;2022-08-21T01:09:56;14.50;99.90
43225;DHT22;28834;48.720;9.208;2022-08-21T01:12:22;14.50;99.90
43225;DHT22;28834;48.720;9.208;2022-08-21T01:14:48;14.60;99.90
43225;DHT22;28834;48.720;9.208;2022-08-21T01:17:14;14.50;99.90
43225;DHT22;28834;48.720;9.208;2022-08-21T01:19:40;14.50;99.90
43225;DHT22;28834;48.720;9.208;2022-08-21T01:22:06;14.60;99.90
43225;DHT22;28834;48.720;9.208;2022-08-21T01:24:32;14.70;99.90
43225;DHT22;28834;48.720;9.208;2022-08-21T01:26:59;14.70;99.90
43225;DHT22;28834;48.720;9.208;2022-08-21T01:29:54;14.70;99.90
43225;DHT22;28834;48.720;9.208;2022-08-21T01:32:20;14.70;99.90
43225;DHT22;28834;48.720;9.208;2022-08-21T01:34:48;14.70;99.90
43225;DHT22;28834;48.720;9.208;2022-08-21T01:37:14;14.60;99.90
43225;DHT22;28834;48.720;9.208;2022-08-21T01:39:40;14.50;99.90
43225;DHT22;28834;48.720;9.208;2022-08-21T01:42:07;14.50;99.90
43225;DHT22;28834;48.720;9.208;2022-08-21T01:44:33;14.50;99.90
43225;DHT22;28834;48.720;9.208;2022-08-21T01:47:02;14.60;99.90
43225;DHT22;28834;48.720;9.208;2022-08-21T01:49:28;14.60;99.90
43225;DHT22;28834;48.720;9.208;2022-08-21T01:51:53;14.70;99.90
43225;DHT22;28834;48.720;9.208;2022-08-21T01:54:19;14.70;99.90
43225;DHT22;28834;48.720;9.208;2022-08-21T01:56:47;14.80;99.90
43225;DHT22;28834;48.720;9.208;2022-08-21T01:59:14;14.80;99.90
43225;DHT22;28834;48.720;9.208;2022-08-21T02:01:40;14.90;99.90
43225;DHT22;28834;48.720;9.208;2022-08-21T02:04:07;14.90;99.90
43225;DHT22;28834;48.720;9.208;2022-08-21T02:06:34;14.90;99.90
43225;DHT22;28834;48.720;9.208;2022-08-21T02:09:00;14.80;99.90
43225;DHT22;28834;48.720;9.208;2022-08-21T02:11:26;14.80;99.90
43225;DHT22;28834;48.720;9.208;2022-08-21T02:13:52;14.80;99.90
43225;DHT22;28834;48.720;9.208;2022-08-21T02:16:17;14.70;99.90
43225;DHT22;28834;48.720;9.208;2022-08-21T02:18:43;14.70;99.90
43225;DHT22;28834;48.720;9.208;2022-08-21T02:21:08;14.60;99.90
43225;DHT22;28834;48.720;9.208;2022-08-21T02:23:34;14.60;99.90
43225;DHT22;28834;48.720;9.208;2022-08-21T02:26:02;14.60;99.90
43225;DHT22;28834;48.720;9.208;2022-08-21T02:28:29;14.50;99.90
43225;DHT22;28834;48.720;9.208;2022-08-21T02:30:55;14.40;99.90
43225;DHT22;28834;48.720;9.208;2022-08-21T02:33:21;14.40;99.90
43225;DHT22;28834;48.720;9.208;2022-08-21T02:35:48;14.30;99.90
43225;DHT22;28834;48.720;9.208;2022-08-21T02:38:27;14.20;99.90
43225;DHT22;28834;48.720;9.208;2022-08-21T02:40:53;14.20;99.90
43225;DHT22;28834;48.720;9.208;2022-08-21T02:43:22;14.10;99.90
43225;DHT22;28834;48.720;9.208;2022-08-21T02:45:49;14.20;99.90
43225;DHT22;28834;48.720;9.208;2022-08-21T02:48:21;14.10;99.90
43225;DHT22;28834;48.720;9.208;2022-08-21T02:50:55;14.00;99.90
43225;DHT22;28834;48.720;9.208;2022-08-21T02:53:22;13.80;99.90
43225;DHT22;28834;48.720;9.208;2022-08-21T02:55:49;13.80;99.90
43225;DHT22;28834;48.720;9.208;2022-08-21T02:58:17;13.80;99.90
43225;DHT22;28834;48.720;9.208;2022-08-21T03:00:44;13.80;99.90
43225;DHT22;28834;48.720;9.208;2022-08-21T03:03:10;13.80;99.90
43225;DHT22;28834;48.720;9.208;2022-08-21T03:05:36;13.70;99.90
43225;DHT22;28834;48.720;9.208;2022-08-21T03:08:08;13.60;99.90
43225;DHT22;28834;48.720;9.208;2022-08-21T03:10:34;13.50;99.90
43225;DHT22;28834;48.720;9.208;2022-08-21T03:13:00;13.50;99.90
43225;DHT22;28834;48.720;9.208;2022-08-21T03:15:27;13.50;99.90
43225;DHT22;28834;48.720;9.208;2022-08-21T03:17:53;13.50;99.90
43225;DHT22;28834;48.720;9.208;2022-08-21T03:20:21;13.50;99.90
43225;DHT22;28834;48.720;9.208;2022-08-21T03:22:49;13.50;99.90
43225;DHT22;28834;48.720;9.208;2022-08-21T03:25:15;13.60;99.90
43225;DHT22;28834;48.720;9.208;2022-08-21T03:27:41;13.70;99.90
43225;DHT22;28834;48.720;9.208;2022-08-21T03:30:07;13.70;99.90
43225;DHT22;28834;48.720;9.208;2022-08-21T03:32:34;13.80;99.90
43225;DHT22;28834;48.720;9.208;2022-08-21T03:35:00;13.70;99.90
43225;DHT22;28834;48.720;9.208;2022-08-21T03:37:27;13.60;99.90
43225;DHT22;28834;48.720;9.208;2022-08-21T03:39:53;13.60;99.90
43225;DHT22;28834;48.720;9.208;2022-08-21T03:42:18;13.70;99.90
43225;DHT22;28834;48.720;9.208;2022-08-21T03:44:44;13.70;99.90
43225;DHT22;28834;48.720;9.208;2022-08-21T03:47:10;13.70;99.90
43225;DHT22;28834;48.720;9.208;2022-08-21T03:49:36;13.80;99.90
43225;DHT22;28834;48.720;9.208;2022-08-21T03:52:03;13.80;99.90
43225;DHT22;28834;48.720;9.208;2022-08-21T03:54:29;13.70;99.90
43225;DHT22;28834;48.720;9.208;2022-08-21T03:56:55;13.50;99.90
43225;DHT22;28834;48.720;9.208;2022-08-21T03:59:21;13.50;99.90
43225;DHT22;28834;48.720;9.208;2022-08-21T04:01:58;13.50;99.90
43225;DHT22;28834;48.720;9.208;2022-08-21T04:04:24;13.50;99.90
43225;DHT22;28834;48.720;9.208;2022-08-21T04:06:50;13.40;99.90
43225;DHT22;28834;48.720;9.208;2022-08-21T04:09:17;13.30;99.90
43225;DHT22;28834;48.720;9.208;2022-08-21T04:11:43;13.20;99.90
43225;DHT22;28834;48.720;9.208;2022-08-21T04:14:09;13.20;99.90
43225;DHT22;28834;48.720;9.208;2022-08-21T04:16:34;13.10;99.90
43225;DHT22;28834;48.720;9.208;2022-08-21T04:19:00;13.10;99.90
43225;DHT22;28834;48.720;9.208;2022-08-21T04:21:26;13.00;99.90
43225;DHT22;28834;48.720;9.208;2022-08-21T04:23:54;12.90;99.90
43225;DHT22;28834;48.720;9.208;2022-08-21T04:26:21;13.00;99.90
43225;DHT22;28834;48.720;9.208;2022-08-21T04:28:46;12.90;99.90
43225;DHT22;28834;48.720;9.208;2022-08-21T04:31:12;12.90;99.90
43225;DHT22;28834;48.720;9.208;2022-08-21T04:33:37;12.90;99.90
43225;DHT22;28834;48.720;9.208;2022-08-21T04:36:03;12.90;99.90
43225;DHT22;28834;48.720;9.208;2022-08-21T04:38:29;12.90;99.90
43225;DHT22;28834;48.720;9.208;2022-08-21T04:40:56;12.90;99.90
43225;DHT22;28834;48.720;9.208;2022-08-21T04:43:22;12.90;99.90
43225;DHT22;28834;48.720;9.208;2022-08-21T04:45:49;13.00;99.90
43225;DHT22;28834;48.720;9.208;2022-08-21T04:48:20;13.00;99.90
43225;DHT22;28834;48.720;9.208;2022-08-21T04:51:09;13.00;99.90
43225;DHT22;28834;48.720;9.208;2022-08-21T04:54:01;13.00;99.90
43225;DHT22;28834;48.720;9.208;2022-08-21T04:56:31;13.00;99.90
43225;DHT22;28834;48.720;9.208;2022-08-21T04:59:01;13.00;99.90
43225;DHT22;28834;48.720;9.208;2022-08-21T05:01:34;13.10;99.90
43225;DHT22;28834;48.720;9.208;2022-08-21T05:04:02;13.10;99.90
43225;DHT22;28834;48.720;9.208;2022-08-21T05:06:32;13.20;99.90
43225;DHT22;28834;48.720;9.208;2022-08-21T05:09:00;13.20;99.90
43225;DHT22;28834;48.720;9.208;2022-08-21T05:11:26;13.30;99.90
43225;DHT22;28834;48.720;9.208;2022-08-21T05:13:52;13.30;99.90
43225;DHT22;28834;48.720;9.208;2022-08-21T05:16:17;13.30;99.90
43225;DHT22;28834;48.720;9.208;2022-08-21T05:18:43;13.40;99.90
43225;DHT22;28834;48.720;9.208;2022-08-21T05:21:09;13.50;99.90
43225;DHT22;28834;48.720;9.208;2022-08-21T05:23:35;13.50;99.90
43225;DHT22;28834;48.720;9.208;2022-08-21T05:26:01;13.70;99.90
43225;DHT22;28834;48.720;9.208;2022-08-21T05:28:27;13.80;99.90
43225;DHT22;28834;48.720;9.208;2022-08-21T05:30:53;13.80;99.90
43225;DHT22;28834;48.720;9.208;2022-08-21T05:33:19;13.90;99.90
43225;DHT22;28834;48.720;9.208;2022-08-21T05:35:45;14.00;99.90
43225;DHT22;28834;48.720;9.208;2022-08-21T05:38:10;14.10;99.90
43225;DHT22;28834;48.720;9.208;2022-08-21T05:40:36;14.20;99.90
43225;DHT22;28834;48.720;9.208;2022-08-21T05:43:02;14.30;99.90
43225;DHT22;28834;48.720;9.208;2022-08-21T05:45:30;14.40;99.90
43225;DHT22;28834;48.720;9.208;2022-08-21T05:47:56;14.50;99.90
43225;DHT22;28834;48.720;9.208;2022-08-21T05:50:22;14.50;99.90
43225;DHT22;28834;48.720;9.208;2022-08-21T05:52:48;14.60;99.90
43225;DHT22;28834;48.720;9.208;2022-08-21T05:55:14;14.60;99.90
43225;DHT22;28834;48.720;9.208;2022-08-21T05:57:40;14.70;99.90
43225;DHT22;28834;48.720;9.208;2022-08-21T06:00:09;14.80;99.90
43225;DHT22;28834;48.720;9.208;2022-08-21T06:02:38;14.90;99.90
43225;DHT22;28834;48.720;9.208;2022-08-21T06:05:04;15.10;99.90
43225;DHT22;28834;48.720;9.208;2022-08-21T06:07:29;15.20;99.90
43225;DHT22;28834;48.720;9.208;2022-08-21T06:09:55;15.30;99.90
43225;DHT22;28834;48.720;9.208;2022-08-21T06:12:21;15.40;99.90
43225;DHT22;28834;48.720;9.208;2022-08-21T06:14:46;15.50;99.90
43225;DHT22;28834;48.720;9.208;2022-08-21T06:17:12;15.50;99.90
43225;DHT22;28834;48.720;9.208;2022-08-21T06:19:39;15.50;99.90
43225;DHT22;28834;48.720;9.208;2022-08-21T06:22:04;15.50;99.90
43225;DHT22;28834;48.720;9.208;2022-08-21T06:24:31;15.60;99.90
43225;DHT22;28834;48.720;9.208;2022-08-21T06:26:57;15.70;99.90
43225;DHT22;28834;48.720;9.208;2022-08-21T06:29:22;15.70;99.90
43225;DHT22;28834;48.720;9.208;2022-08-21T06:31:50;15.80;99.90
43225;DHT22;28834;48.720;9.208;2022-08-21T06:34:17;15.90;99.90
43225;DHT22;28834;48.720;9.208;2022-08-21T06:36:43;15.90;99.90
43225;DHT22;28834;48.720;9.208;2022-08-21T06:39:09;16.00;99.90
43225;DHT22;28834;48.720;9.208;2022-08-21T06:41:35;16.20;99.90
43225;DHT22;28834;48.720;9.208;2022-08-21T06:44:00;16.20;99.90
43225;DHT22;28834;48.720;9.208;2022-08-21T06:46:28;16.30;99.90
43225;DHT22;28834;48.720;9.208;2022-08-21T06:48:54;16.40;99.90
43225;DHT22;28834;48.720;9.208;2022-08-21T06:51:21;16.60;99.90
43225;DHT22;28834;48.720;9.208;2022-08-21T06:53:46;16.80;99.90
43225;DHT22;28834;48.720;9.208;2022-08-21T06:56:12;16.90;99.90
43225;DHT22;28834;48.720;9.208;2022-08-21T06:58:38;17.10;99.90
43225;DHT22;28834;48.720;9.208;2022-08-21T07:01:04;17.30;99.90
43225;DHT22;28834;48.720;9.208;2022-08-21T07:03:33;17.50;99.90
43225;DHT22;28834;48.720;9.208;2022-08-21T07:05:58;17.70;99.90
43225;DHT22;28834;48.720;9.208;2022-08-21T07:08:25;17.90;99.90
43225;DHT22;28834;48.720;9.208;2022-08-21T07:10:53;18.00;99.90
43225;DHT22;28834;48.720;9.208;2022-08-21T07:13:20;18.10;99.90
43225;DHT22;28834;48.720;9.208;2022-08-21T07:15:46;18.40;99.90
43225;DHT22;28834;48.720;9.208;2022-08-21T07:18:11;18.60;99.90
43225;DHT22;28834;48.720;9.208;2022-08-21T07:20:38;18.90;99.90
43225;DHT22;28834;48.720;9.208;2022-08-21T07:23:09;19.20;99.90
43225;DHT22;28834;48.720;9.208;2022-08-21T07:25:35;19.40;99.90
43225;DHT22;28834;48.720;9.208;2022-08-21T07:28:01;19.60;99.90
43225;DHT22;28834;48.720;9.208;2022-08-21T07:30:27;19.80;99.90
43225;DHT22;28834;48.720;9.208;2022-08-21T07:32:53;20.00;99.90
43225;DHT22;28834;48.720;9.208;2022-08-21T07:35:20;20.20;99.90
43225;DHT22;28834;48.720;9.208;2022-08-21T07:37:46;20.30;99.90
43225;DHT22;28834;48.720;9.208;2022-08-21T07:40:12;20.50;99.90
43225;DHT22;28834;48.720;9.208;2022-08-21T07:42:42;20.70;99.90
43225;DHT22;28834;48.720;9.208;2022-08-21T07:45:09;20.90;99.90
43225;DHT22;28834;48.720;9.208;2022-08-21T07:47:35;21.10;99.90
43225;DHT22;28834;48.720;9.208;2022-08-21T07:50:01;21.30;99.90
43225;DHT22;28834;48.720;9.208;2022-08-21T07:52:27;21.50;99.90
43225;DHT22;28834;48.720;9.208;2022-08-21T07:54:53;21.60;99.90
43225;DHT22;28834;48.720;9.208;2022-08-21T07:57:18;21.80;99.90
43225;DHT22;28834;48.720;9.208;2022-08-21T07:59:44;21.90;99.90
43225;DHT22;28834;48.720;9.208;2022-08-21T08:02:09;21.90;99.90
43225;DHT22;28834;48.720;9.208;2022-08-21T08:04:35;22.20;99.90
43225;DHT22;28834;48.720;9.208;2022-08-21T08:07:00;22.30;99.60
43225;DHT22;28834;48.720;9.208;2022-08-21T08:09:26;22.30;99.00
43225;DHT22;28834;48.720;9.208;2022-08-21T08:11:51;22.40;99.30
43225;DHT22;28834;48.720;9.208;2022-08-21T08:14:17;22.50;99.90
43225;DHT22;28834;48.720;9.208;2022-08-21T08:16:42;22.60;97.60
43225;DHT22;28834;48.720;9.208;2022-08-21T08:19:08;22.60;98.70
43225;DHT22;28834;48.720;9.208;2022-08-21T08:21:34;22.80;97.80
43225;DHT22;28834;48.720;9.208;2022-08-21T08:24:00;22.90;98.50
43225;DHT22;28834;48.720;9.208;2022-08-21T08:26:26;23.00;97.80
43225;DHT22;28834;48.720;9.208;2022-08-21T08:28:52;23.20;96.80
43225;DHT22;28834;48.720;9.208;2022-08-21T08:31:18;23.20;96.10
43225;DHT22;28834;48.720;9.208;2022-08-21T08:33:43;23.30;95.80
43225;DHT22;28834;48.720;9.208;2022-08-21T08:36:14;23.30;96.20
43225;DHT22;28834;48.720;9.208;2022-08-21T08:38:40;23.50;95.60
43225;DHT22;28834;48.720;9.208;2022-08-21T08:41:12;23.50;96.60
43225;DHT22;28834;48.720;9.208;2022-08-21T08:43:48;23.70;95.10
43225;DHT22;28834;48.720;9.208;2022-08-21T08:46:16;23.80;94.10
43225;DHT22;28834;48.720;9.208;2022-08-21T08:51:46;24.00;93.90
43225;DHT22;28834;48.720;9.208;2022-08-21T08:54:17;24.10;93.90
43225;DHT22;28834;48.720;9.208;2022-08-21T08:56:44;24.10;91.80
43225;DHT22;28834;48.720;9.208;2022-08-21T08:59:19;24.10;90.60
43225;DHT22;28834;48.720;9.208;2022-08-21T09:01:45;24.20;90.40
43225;DHT22;28834;48.720;9.208;2022-08-21T09:04:11;24.30;92.80
43225;DHT22;28834;48.720;9.208;2022-08-21T09:06:52;24.40;92.70
43225;DHT22;28834;48.720;9.208;2022-08-21T09:09:41;24.60;91.40
43225;DHT22;28834;48.720;9.208;2022-08-21T09:15:03;24.80;90.80
43225;DHT22;28834;48.720;9.208;2022-08-21T09:20:47;24.90;85.50
43225;DHT22;28834;48.720;9.208;2022-08-21T09:26:15;24.90;87.80
43225;DHT22;28834;48.720;9.208;2022-08-21T09:28:42;24.90;85.60
43225;DHT22;28834;48.720;9.208;2022-08-21T09:31:16;24.90;86.40
43225;DHT22;28834;48.720;9.208;2022-08-21T09:33:45;24.90;87.80
43225;DHT22;28834;48.720;9.208;2022-08-21T09:36:11;25.00;88.60
43225;DHT22;28834;48.720;9.208;2022-08-21T09:38:37;25.10;80.40
43225;DHT22;28834;48.720;9.208;2022-08-21T09:41:08;25.00;79.10
43225;DHT22;28834;48.720;9.208;2022-08-21T09:43:36;25.10;83.80
43225;DHT22;28834;48.720;9.208;2022-08-21T09:46:11;25.10;82.30
43225;DHT22;28834;48.720;9.208;2022-08-21T09:48:42;25.10;79.30
43225;DHT22;28834;48.720;9.208;2022-08-21T09:51:18;25.20;77.70
43225;DHT22;28834;48.720;9.208;2022-08-21T09:53:52;25.20;83.90
43225;DHT22;28834;48.720;9.208;2022-08-21T09:56:33;25.30;80.40
43225;DHT22;28834;48.720;9.208;2022-08-21T09:59:25;25.40;77.50
43225;DHT22;28834;48.720;9.208;2022-08-21T10:01:52;25.40;82.00
43225;DHT22;28834;48.720;9.208;2022-08-21T10:04:27;25.40;81.70
43225;DHT22;28834;48.720;9.208;2022-08-21T10:06:53;25.40;77.70
43225;DHT22;28834;48.720;9.208;2022-08-21T10:09:20;25.50;75.40
43225;DHT22;28834;48.720;9.208;2022-08-21T10:11:54;25.60;77.50
43225;DHT22;28834;48.720;9.208;2022-08-21T10:14:34;25.70;77.60
43225;DHT22;28834;48.720;9.208;2022-08-21T10:17:31;25.80;78.80
43225;DHT22;28834;48.720;9.208;2022-08-21T10:20:09;25.90;75.60
43225;DHT22;28834;48.720;9.208;2022-08-21T10:25:35;25.80;77.10
43225;DHT22;28834;48.720;9.208;2022-08-21T10:28:26;25.60;77.10
43225;DHT22;28834;48.720;9.208;2022-08-21T10:31:37;24.70;75.30
43225;DHT22;28834;48.720;9.208;2022-08-21T10:39:35;24.50;80.50
43225;DHT22;28834;48.720;9.208;2022-08-21T10:47:54;25.40;75.80
43225;DHT22;28834;48.720;9.208;2022-08-21T10:50:35;25.70;72.70
43225;DHT22;28834;48.720;9.208;2022-08-21T10:56:00;26.10;72.90
43225;DHT22;28834;48.720;9.208;2022-08-21T11:01:00;26.20;71.10
43225;DHT22;28834;48.720;9.208;2022-08-21T11:03:33;26.40;71.20
43225;DHT22;28834;48.720;9.208;2022-08-21T11:08:50;26.40;68.50
43225;DHT22;28834;48.720;9.208;2022-08-21T11:11:34;26.50;73.40
43225;DHT22;28834;48.720;9.208;2022-08-21T11:14:25;26.60;69.00
43225;DHT22;28834;48.720;9.208;2022-08-21T11:17:05;26.60;67.40
43225;DHT22;28834;48.720;9.208;2022-08-21T11:22:38;26.60;66.80
43225;DHT22;28834;48.720;9.208;2022-08-21T11:25:21;26.70;64.70
43225;DHT22;28834;48.720;9.208;2022-08-21T11:27:56;26.70;67.00
43225;DHT22;28834;48.720;9.208;2022-08-21T11:30:29;26.70;67.10
43225;DHT22;28834;48.720;9.208;2022-08-21T11:36:02;26.80;65.30
43225;DHT22;28834;48.720;9.208;2022-08-21T11:38:34;26.70;64.60
43225;DHT22;28834;48.720;9.208;2022-08-21T11:44:17;26.60;64.90
43225;DHT22;28834;48.720;9.208;2022-08-21T11:50:20;26.50;65.80
43225;DHT22;28834;48.720;9.208;2022-08-21T11:55:16;26.40;65.50
43225;DHT22;28834;48.720;9.208;2022-08-21T12:03:17;26.10;65.70
43225;DHT22;28834;48.720;9.208;2022-08-21T12:06:00;26.20;64.20
43225;DHT22;28834;48.720;9.208;2022-08-21T12:11:09;26.30;63.30
43225;DHT22;28834;48.720;9.208;2022-08-21T12:13:38;26.40;65.00
43225;DHT22;28834;48.720;9.208;2022-08-21T12:16:15;26.40;62.70
43225;DHT22;28834;48.720;9.208;2022-08-21T12:19:09;26.40;66.60
43225;DHT22;28834;48.720;9.208;2022-08-21T12:21:57;26.40;65.30
43225;DHT22;28834;48.720;9.208;2022-08-21T12:24:43;26.30;63.40
43225;DHT22;28834;48.720;9.208;2022-08-21T12:27:28;26.30;63.30
43225;DHT22;28834;48.720;9.208;2022-08-21T12:30:05;26.30;62.80
43225;DHT22;28834;48.720;9.208;2022-08-21T12:35:21;26.50;62.50
43225;DHT22;28834;48.720;9.208;2022-08-21T12:40:39;26.50;64.10
43225;DHT22;28834;48.720;9.208;2022-08-21T12:43:11;26.50;65.30
43225;DHT22;28834;48.720;9.208;2022-08-21T12:45:45;26.60;61.40
43225;DHT22;28834;48.720;9.208;2022-08-21T12:53:52;26.70;62.90
43225;DHT22;28834;48.720;9.208;2022-08-21T12:56:21;26.80;63.00
43225;DHT22;28834;48.720;9.208;2022-08-21T12:58:51;26.80;61.50
43225;DHT22;28834;48.720;9.208;2022-08-21T13:01:33;26.90;61.30
43225;DHT22;28834;48.720;9.208;2022-08-21T13:04:03;26.90;63.60
43225;DHT22;28834;48.720;9.208;2022-08-21T13:06:32;26.80;62.60
43225;DHT22;28834;48.720;9.208;2022-08-21T13:09:06;26.80;62.10
43225;DHT22;28834;48.720;9.208;2022-08-21T13:11:32;26.70;62.00
43225;DHT22;28834;48.720;9.208;2022-08-21T13:14:00;26.70;60.50
43225;DHT22;28834;48.720;9.208;2022-08-21T13:16:28;26.60;61.50
43225;DHT22;28834;48.720;9.208;2022-08-21T13:19:04;26.60;61.50
43225;DHT22;28834;48.720;9.208;2022-08-21T13:21:33;26.40;61.80
43225;DHT22;28834;48.720;9.208;2022-08-21T13:24:21;26.10;61.90
43225;DHT22;28834;48.720;9.208;2022-08-21T13:26:48;25.70;61.40
43225;DHT22;28834;48.720;9.208;2022-08-21T13:29:17;25.70;63.10
43225;DHT22;28834;48.720;9.208;2022-08-21T13:31:57;25.80;64.70
43225;DHT22;28834;48.720;9.208;2022-08-21T13:34:26;25.70;66.00
43225;DHT22;28834;48.720;9.208;2022-08-21T13:36:59;25.80;62.50
43225;DHT22;28834;48.720;9.208;2022-08-21T13:39:25;25.90;63.00
43225;DHT22;28834;48.720;9.208;2022-08-21T13:41:55;25.90;61.00
43225;DHT22;28834;48.720;9.208;2022-08-21T13:44:24;26.00;60.30
43225;DHT22;28834;48.720;9.208;2022-08-21T13:46:57;26.00;60.10
43225;DHT22;28834;48.720;9.208;2022-08-21T13:49:34;26.00;60.10
43225;DHT22;28834;48.720;9.208;2022-08-21T13:52:00;26.00;59.10
43225;DHT22;28834;48.720;9.208;2022-08-21T13:54:37;25.90;60.30
43225;DHT22;28834;48.720;9.208;2022-08-21T13:57:04;26.10;62.00
43225;DHT22;28834;48.720;9.208;2022-08-21T13:59:40;26.20;58.60
43225;DHT22;28834;48.720;9.208;2022-08-21T14:02:13;26.20;59.60
43225;DHT22;28834;48.720;9.208;2022-08-21T14:04:51;26.20;60.50
43225;DHT22;28834;48.720;9.208;2022-08-21T14:07:26;26.10;61.30
43225;DHT22;28834;48.720;9.208;2022-08-21T14:09:54;26.20;60.80
43225;DHT22;28834;48.720;9.208;2022-08-21T14:12:29;26.30;61.50
43225;DHT22;28834;48.720;9.208;2022-08-21T14:14:58;26.50;58.20
43225;DHT22;28834;48.720;9.208;2022-08-21T14:17:29;26.50;58.80
43225;DHT22;28834;48.720;9.208;2022-08-21T14:19:56;26.70;58.80
43225;DHT22;28834;48.720;9.208;2022-08-21T14:27:38;27.00;61.00
43225;DHT22;28834;48.720;9.208;2022-08-21T14:30:17;26.80;59.00
43225;DHT22;28834;48.720;9.208;2022-08-21T14:32:45;26.50;62.50
43225;DHT22;28834;48.720;9.208;2022-08-21T14:35:10;26.10;60.90
43225;DHT22;28834;48.720;9.208;2022-08-21T14:37:36;25.80;59.70
43225;DHT22;28834;48.720;9.208;2022-08-21T14:40:03;25.40;60.80
43225;DHT22;28834;48.720;9.208;2022-08-21T14:42:29;25.10;62.60
43225;DHT22;28834;48.720;9.208;2022-08-21T14:44:59;24.90;67.10
43225;DHT22;28834;48.720;9.208;2022-08-21T14:47:24;24.60;65.60
43225;DHT22;28834;48.720;9.208;2022-08-21T14:49:50;24.40;65.20
43225;DHT22;28834;48.720;9.208;2022-08-21T14:52:19;24.40;65.30
43225;DHT22;28834;48.720;9.208;2022-08-21T14:54:44;24.60;61.00
43225;DHT22;28834;48.720;9.208;2022-08-21T14:57:11;25.00;60.90
43225;DHT22;28834;48.720;9.208;2022-08-21T14:59:38;25.40;58.30
43225;DHT22;28834;48.720;9.208;2022-08-21T15:02:06;25.90;63.10
43225;DHT22;28834;48.720;9.208;2022-08-21T15:04:33;26.30;63.10
43225;DHT22;28834;48.720;9.208;2022-08-21T15:06:59;26.60;63.80
43225;DHT22;28834;48.720;9.208;2022-08-21T15:09:24;26.80;62.90
43225;DHT22;28834;48.720;9.208;2022-08-21T15:11:53;27.00;62.60
43225;DHT22;28834;48.720;9.208;2022-08-21T15:14:24;26.50;63.00
43225;DHT22;28834;48.720;9.208;2022-08-21T15:16:50;26.30;61.40
43225;DHT22;28834;48.720;9.208;2022-08-21T15:19:16;25.60;63.50
43225;DHT22;28834;48.720;9.208;2022-08-21T15:21:41;25.10;62.00
43225;DHT22;28834;48.720;9.208;2022-08-21T15:24:07;24.80;66.60
43225;DHT22;28834;48.720;9.208;2022-08-21T15:26:34;24.60;63.40
43225;DHT22;28834;48.720;9.208;2022-08-21T15:29:00;24.60;64.80
43225;DHT22;28834;48.720;9.208;2022-08-21T15:31:25;25.00;66.10
43225;DHT22;28834;48.720;9.208;2022-08-21T15:33:51;25.40;63.80
43225;DHT22;28834;48.720;9.208;2022-08-21T15:36:17;25.70;63.90
43225;DHT22;28834;48.720;9.208;2022-08-21T15:38:44;25.80;63.00
43225;DHT22;28834;48.720;9.208;2022-08-21T15:41:10;25.80;59.90
43225;DHT22;28834;48.720;9.208;2022-08-21T15:43:45;25.60;59.30
43225;DHT22;28834;48.720;9.208;2022-08-21T15:46:13;25.40;64.40
43225;DHT22;28834;48.720;9.208;2022-08-21T15:48:40;25.10;60.20
43225;DHT22;28834;48.720;9.208;2022-08-21T15:51:05;25.00;63.00
43225;DHT22;28834;48.720;9.208;2022-08-21T15:53:31;24.80;65.60
43225;DHT22;28834;48.720;9.208;2022-08-21T15:56:05;24.70;61.80
43225;DHT22;28834;48.720;9.208;2022-08-21T15:58:31;24.60;62.80
43225;DHT22;28834;48.720;9.208;2022-08-21T16:00:59;24.60;61.10
43225;DHT22;28834;48.720;9.208;2022-08-21T16:03:25;24.50;62.30
43225;DHT22;28834;48.720;9.208;2022-08-21T16:05:51;24.50;60.50
43225;DHT22;28834;48.720;9.208;2022-08-21T16:08:19;24.40;60.60
43225;DHT22;28834;48.720;9.208;2022-08-21T16:10:45;24.30;60.40
43225;DHT22;28834;48.720;9.208;2022-08-21T16:13:18;24.30;62.70
43225;DHT22;28834;48.720;9.208;2022-08-21T16:15:45;24.30;59.90
43225;DHT22;28834;48.720;9.208;2022-08-21T16:18:11;24.30;60.50
43225;DHT22;28834;48.720;9.208;2022-08-21T16:20:37;24.10;61.90
43225;DHT22;28834;48.720;9.208;2022-08-21T16:23:02;24.10;66.90
43225;DHT22;28834;48.720;9.208;2022-08-21T16:25:28;23.90;68.10
43225;DHT22;28834;48.720;9.208;2022-08-21T16:27:59;23.80;67.30
43225;DHT22;28834;48.720;9.208;2022-08-21T16:30:25;23.70;66.10
43225;DHT22;28834;48.720;9.208;2022-08-21T16:32:51;23.60;63.80
43225;DHT22;28834;48.720;9.208;2022-08-21T16:35:19;23.50;64.50
43225;DHT22;28834;48.720;9.208;2022-08-21T16:37:45;23.40;64.00
43225;DHT22;28834;48.720;9.208;2022-08-21T16:40:11;23.40;65.70
43225;DHT22;28834;48.720;9.208;2022-08-21T16:42:39;23.20;72.60
43225;DHT22;28834;48.720;9.208;2022-08-21T16:45:11;23.20;72.60
43225;DHT22;28834;48.720;9.208;2022-08-21T16:47:36;23.10;73.80
43225;DHT22;28834;48.720;9.208;2022-08-21T16:50:02;23.00;73.60
43225;DHT22;28834;48.720;9.208;2022-08-21T16:52:29;22.90;74.30
43225;DHT22;28834;48.720;9.208;2022-08-21T16:54:55;22.90;71.90